sensor_id;sensor_type;location;lat;lon;timestamp;temperature;humidity
71436;SHT31;59251;51.326;12.370;2023-11-22T00:00:14;4.97;73.30
71436;SHT31;59251;51.326;12.370;2023-11-22T00:02:40;5.02;73.20
71436;SHT31;59251;51.326;12.370;2023-11-22T00:05:07;4.64;73.55
71436;SHT31;59251;51.326;12.370;2023-11-22T00:07:35;4.75;73.82
71436;SHT31;59251;51.326;12.370;2023-11-22T00:10:02;4.91;73.77
71436;SHT31;59251;51.326;12.370;2023-11-22T00:12:31;5.15;73.75
71436;SHT31;59251;51.326;12.370;2023-11-22T00:15:02;4.45;74.09
71436;SHT31;59251;51.326;12.370;2023-11-22T00:17:29;5.15;73.59
71436;SHT31;59251;51.326;12.370;2023-11-22T00:19:56;5.03;73.33
71436;SHT31;59251;51.326;12.370;2023-11-22T00:22:23;4.65;72.82
71436;SHT31;59251;51.326;12.370;2023-11-22T00:24:51;4.78;72.81
71436;SHT31;59251;51.326;12.370;2023-11-22T00:27:18;4.55;72.78
71436;SHT31;59251;51.326;12.370;2023-11-22T00:29:46;4.76;73.12
71436;SHT31;59251;51.326;12.370;2023-11-22T00:32:13;5.05;72.70
71436;SHT31;59251;51.326;12.370;2023-11-22T00:34:39;4.97;72.56
71436;SHT31;59251;51.326;12.370;2023-11-22T00:37:06;4.37;72.75
71436;SHT31;59251;51.326;12.370;2023-11-22T00:39:33;4.18;73.06
71436;SHT31;59251;51.326;12.370;2023-11-22T00:42:00;4.53;72.65
71436;SHT31;59251;51.326;12.370;2023-11-22T00:44:27;4.51;72.43
71436;SHT31;59251;51.326;12.370;2023-11-22T00:46:55;4.71;71.51
71436;SHT31;59251;51.326;12.370;2023-11-22T00:49:22;4.60;71.39
71436;SHT31;59251;51.326;12.370;2023-11-22T00:51:49;4.72;71.15
71436;SHT31;59251;51.326;12.370;2023-11-22T00:54:16;4.68;71.29
71436;SHT31;59251;51.326;12.370;2023-11-22T00:56:44;4.62;71.24
71436;SHT31;59251;51.326;12.370;2023-11-22T00:59:11;4.40;72.58
71436;SHT31;59251;51.326;12.370;2023-11-22T01:01:38;4.88;71.29
71436;SHT31;59251;51.326;12.370;2023-11-22T01:04:06;4.34;72.52
71436;SHT31;59251;51.326;12.370;2023-11-22T01:06:33;4.62;72.83
71436;SHT31;59251;51.326;12.370;2023-11-22T01:09:02;4.79;71.86
71436;SHT31;59251;51.326;12.370;2023-11-22T01:11:29;4.11;73.05
71436;SHT31;59251;51.326;12.370;2023-11-22T01:13:55;4.69;71.93
71436;SHT31;59251;51.326;12.370;2023-11-22T01:16:23;4.79;72.22
71436;SHT31;59251;51.326;12.370;2023-11-22T01:18:50;4.67;72.11
71436;SHT31;59251;51.326;12.370;2023-11-22T01:21:19;4.82;71.89
71436;SHT31;59251;51.326;12.370;2023-11-22T01:23:46;4.68;73.00
71436;SHT31;59251;51.326;12.370;2023-11-22T01:26:13;5.06;71.94
71436;SHT31;59251;51.326;12.370;2023-11-22T01:28:40;4.97;72.00
71436;SHT31;59251;51.326;12.370;2023-11-22T01:31:11;4.27;72.64
71436;SHT31;59251;51.326;12.370;2023-11-22T01:33:38;4.47;72.47
71436;SHT31;59251;51.326;12.370;2023-11-22T01:36:05;4.86;72.23
71436;SHT31;59251;51.326;12.370;2023-11-22T01:38:33;4.88;72.30
71436;SHT31;59251;51.326;12.370;2023-11-22T01:41:00;4.44;73.40
71436;SHT31;59251;51.326;12.370;2023-11-22T01:43:27;4.99;73.05
71436;SHT31;59251;51.326;12.370;2023-11-22T01:45:54;4.88;72.91
71436;SHT31;59251;51.326;12.370;2023-11-22T01:48:22;4.76;73.89
71436;SHT31;59251;51.326;12.370;2023-11-22T01:50:49;4.69;73.66
71436;SHT31;59251;51.326;12.370;2023-11-22T01:53:16;4.72;73.68
71436;SHT31;59251;51.326;12.370;2023-11-22T01:55:44;4.21;75.22
71436;SHT31;59251;51.326;12.370;2023-11-22T01:58:11;4.27;75.09
71436;SHT31;59251;51.326;12.370;2023-11-22T02:00:43;4.33;75.19
71436;SHT31;59251;51.326;12.370;2023-11-22T02:03:11;4.43;75.02
71436;SHT31;59251;51.326;12.370;2023-11-22T02:05:40;4.14;75.67
71436;SHT31;59251;51.326;12.370;2023-11-22T02:08:09;4.00;75.64
71436;SHT31;59251;51.326;12.370;2023-11-22T02:10:36;3.85;76.21
71436;SHT31;59251;51.326;12.370;2023-11-22T02:13:04;3.87;75.94
71436;SHT31;59251;51.326;12.370;2023-11-22T02:15:33;3.87;76.14
71436;SHT31;59251;51.326;12.370;2023-11-22T02:18:00;3.86;75.63
71436;SHT31;59251;51.326;12.370;2023-11-22T02:20:28;3.78;76.13
71436;SHT31;59251;51.326;12.370;2023-11-22T02:22:55;3.48;76.61
71436;SHT31;59251;51.326;12.370;2023-11-22T02:25:23;3.78;76.49
71436;SHT31;59251;51.326;12.370;2023-11-22T02:27:50;3.45;77.02
71436;SHT31;59251;51.326;12.370;2023-11-22T02:30:17;3.42;77.14
71436;SHT31;59251;51.326;12.370;2023-11-22T02:32:44;3.42;76.89
71436;SHT31;59251;51.326;12.370;2023-11-22T02:35:12;3.59;76.20
71436;SHT31;59251;51.326;12.370;2023-11-22T02:37:41;3.57;76.49
71436;SHT31;59251;51.326;12.370;2023-11-22T02:40:16;3.45;76.22
71436;SHT31;59251;51.326;12.370;2023-11-22T02:42:45;3.28;77.57
71436;SHT31;59251;51.326;12.370;2023-11-22T02:45:12;3.34;76.52
71436;SHT31;59251;51.326;12.370;2023-11-22T02:47:39;3.44;76.53
71436;SHT31;59251;51.326;12.370;2023-11-22T02:50:06;3.24;76.60
71436;SHT31;59251;51.326;12.370;2023-11-22T02:52:33;3.35;76.70
71436;SHT31;59251;51.326;12.370;2023-11-22T02:55:00;3.13;77.28
71436;SHT31;59251;51.326;12.370;2023-11-22T02:57:27;3.32;77.33
71436;SHT31;59251;51.326;12.370;2023-11-22T02:59:55;3.27;77.25
71436;SHT31;59251;51.326;12.370;2023-11-22T03:02:21;3.27;76.89
71436;SHT31;59251;51.326;12.370;2023-11-22T03:04:49;3.21;77.25
71436;SHT31;59251;51.326;12.370;2023-11-22T03:07:16;3.26;77.11
71436;SHT31;59251;51.326;12.370;2023-11-22T03:09:43;3.01;77.33
71436;SHT31;59251;51.326;12.370;2023-11-22T03:12:11;3.16;77.22
71436;SHT31;59251;51.326;12.370;2023-11-22T03:14:38;3.00;77.82
71436;SHT31;59251;51.326;12.370;2023-11-22T03:17:06;3.04;77.60
71436;SHT31;59251;51.326;12.370;2023-11-22T03:19:33;2.89;77.76
71436;SHT31;59251;51.326;12.370;2023-11-22T03:22:00;3.06;77.25
71436;SHT31;59251;51.326;12.370;2023-11-22T03:24:28;3.07;77.58
71436;SHT31;59251;51.326;12.370;2023-11-22T03:26:55;3.09;77.41
71436;SHT31;59251;51.326;12.370;2023-11-22T03:29:24;3.16;76.95
71436;SHT31;59251;51.326;12.370;2023-11-22T03:31:51;2.76;77.53
71436;SHT31;59251;51.326;12.370;2023-11-22T03:34:19;2.88;77.52
71436;SHT31;59251;51.326;12.370;2023-11-22T03:36:46;2.92;77.46
71436;SHT31;59251;51.326;12.370;2023-11-22T03:39:15;3.06;76.77
71436;SHT31;59251;51.326;12.370;2023-11-22T03:41:42;2.99;77.28
71436;SHT31;59251;51.326;12.370;2023-11-22T03:44:09;2.61;77.74
71436;SHT31;59251;51.326;12.370;2023-11-22T03:46:36;2.89;77.83
71436;SHT31;59251;51.326;12.370;2023-11-22T03:49:03;2.86;77.62
71436;SHT31;59251;51.326;12.370;2023-11-22T03:51:31;3.07;77.02
71436;SHT31;59251;51.326;12.370;2023-11-22T03:53:58;2.63;77.75
71436;SHT31;59251;51.326;12.370;2023-11-22T03:56:24;2.85;77.75
71436;SHT31;59251;51.326;12.370;2023-11-22T03:58:51;2.56;78.15
71436;SHT31;59251;51.326;12.370;2023-11-22T04:01:18;2.80;77.27
71436;SHT31;59251;51.326;12.370;2023-11-22T04:03:45;2.78;76.99
71436;SHT31;59251;51.326;12.370;2023-11-22T04:06:13;2.48;77.79
71436;SHT31;59251;51.326;12.370;2023-11-22T04:08:42;2.65;77.33
71436;SHT31;59251;51.326;12.370;2023-11-22T04:11:10;2.66;77.22
71436;SHT31;59251;51.326;12.370;2023-11-22T04:13:37;2.63;77.51
71436;SHT31;59251;51.326;12.370;2023-11-22T04:16:04;2.37;77.67
71436;SHT31;59251;51.326;12.370;2023-11-22T04:18:33;2.65;77.22
71436;SHT31;59251;51.326;12.370;2023-11-22T04:21:01;2.40;77.80
71436;SHT31;59251;51.326;12.370;2023-11-22T04:23:30;2.73;77.15
71436;SHT31;59251;51.326;12.370;2023-11-22T04:25:59;2.59;76.98
71436;SHT31;59251;51.326;12.370;2023-11-22T04:28:26;2.58;77.14
71436;SHT31;59251;51.326;12.370;2023-11-22T04:30:54;2.56;77.44
71436;SHT31;59251;51.326;12.370;2023-11-22T04:33:20;2.28;77.70
71436;SHT31;59251;51.326;12.370;2023-11-22T04:35:47;2.27;77.61
71436;SHT31;59251;51.326;12.370;2023-11-22T04:38:14;2.42;77.71
71436;SHT31;59251;51.326;12.370;2023-11-22T04:40:41;2.30;78.15
71436;SHT31;59251;51.326;12.370;2023-11-22T04:43:09;2.27;77.59
71436;SHT31;59251;51.326;12.370;2023-11-22T04:45:36;2.46;77.63
71436;SHT31;59251;51.326;12.370;2023-11-22T04:48:03;2.04;77.86
71436;SHT31;59251;51.326;12.370;2023-11-22T04:50:32;2.55;77.37
71436;SHT31;59251;51.326;12.370;2023-11-22T04:52:58;2.45;77.23
71436;SHT31;59251;51.326;12.370;2023-11-22T04:55:27;2.51;77.12
71436;SHT31;59251;51.326;12.370;2023-11-22T04:57:54;2.55;76.80
71436;SHT31;59251;51.326;12.370;2023-11-22T05:00:22;2.44;77.45
71436;SHT31;59251;51.326;12.370;2023-11-22T05:02:49;2.45;76.94
71436;SHT31;59251;51.326;12.370;2023-11-22T05:05:16;2.34;77.83
71436;SHT31;59251;51.326;12.370;2023-11-22T05:07:43;2.24;77.95
71436;SHT31;59251;51.326;12.370;2023-11-22T05:10:10;2.48;77.24
71436;SHT31;59251;51.326;12.370;2023-11-22T05:12:37;2.28;78.17
71436;SHT31;59251;51.326;12.370;2023-11-22T05:15:05;2.34;77.56
71436;SHT31;59251;51.326;12.370;2023-11-22T05:17:33;2.34;77.55
71436;SHT31;59251;51.326;12.370;2023-11-22T05:20:00;2.28;77.75
71436;SHT31;59251;51.326;12.370;2023-11-22T05:22:27;2.30;77.52
71436;SHT31;59251;51.326;12.370;2023-11-22T05:24:53;2.22;78.40
71436;SHT31;59251;51.326;12.370;2023-11-22T05:27:21;2.09;78.38
71436;SHT31;59251;51.326;12.370;2023-11-22T05:29:48;1.89;78.20
71436;SHT31;59251;51.326;12.370;2023-11-22T05:32:15;2.13;77.90
71436;SHT31;59251;51.326;12.370;2023-11-22T05:34:43;2.04;77.82
71436;SHT31;59251;51.326;12.370;2023-11-22T05:37:10;2.13;78.18
71436;SHT31;59251;51.326;12.370;2023-11-22T05:39:37;2.04;78.03
71436;SHT31;59251;51.326;12.370;2023-11-22T05:42:04;2.27;77.60
71436;SHT31;59251;51.326;12.370;2023-11-22T05:44:32;2.40;77.04
71436;SHT31;59251;51.326;12.370;2023-11-22T05:46:59;2.15;77.60
71436;SHT31;59251;51.326;12.370;2023-11-22T05:49:25;2.20;77.73
71436;SHT31;59251;51.326;12.370;2023-11-22T05:51:53;2.34;77.29
71436;SHT31;59251;51.326;12.370;2023-11-22T05:54:20;2.53;76.78
71436;SHT31;59251;51.326;12.370;2023-11-22T05:56:47;2.58;76.69
71436;SHT31;59251;51.326;12.370;2023-11-22T05:59:13;2.92;75.81
71436;SHT31;59251;51.326;12.370;2023-11-22T06:01:40;2.72;76.01
71436;SHT31;59251;51.326;12.370;2023-11-22T06:04:07;2.75;76.07
71436;SHT31;59251;51.326;12.370;2023-11-22T06:06:34;2.88;75.77
71436;SHT31;59251;51.326;12.370;2023-11-22T06:09:03;2.30;77.41
71436;SHT31;59251;51.326;12.370;2023-11-22T06:11:30;2.71;76.60
71436;SHT31;59251;51.326;12.370;2023-11-22T06:13:57;2.01;76.84
71436;SHT31;59251;51.326;12.370;2023-11-22T06:16:24;1.93;77.74
71436;SHT31;59251;51.326;12.370;2023-11-22T06:18:50;2.41;77.31
71436;SHT31;59251;51.326;12.370;2023-11-22T06:21:17;2.69;76.57
71436;SHT31;59251;51.326;12.370;2023-11-22T06:23:44;2.24;76.97
71436;SHT31;59251;51.326;12.370;2023-11-22T06:26:12;2.35;76.53
71436;SHT31;59251;51.326;12.370;2023-11-22T06:28:40;2.58;76.09
71436;SHT31;59251;51.326;12.370;2023-11-22T06:31:07;2.40;76.94
71436;SHT31;59251;51.326;12.370;2023-11-22T06:33:33;1.76;76.93
71436;SHT31;59251;51.326;12.370;2023-11-22T06:36:01;2.22;76.32
71436;SHT31;59251;51.326;12.370;2023-11-22T06:38:28;2.35;76.54
71436;SHT31;59251;51.326;12.370;2023-11-22T06:40:55;2.49;75.91
71436;SHT31;59251;51.326;12.370;2023-11-22T06:43:23;2.48;75.39
71436;SHT31;59251;51.326;12.370;2023-11-22T06:45:50;2.18;76.14
71436;SHT31;59251;51.326;12.370;2023-11-22T06:48:17;2.69;74.80
71436;SHT31;59251;51.326;12.370;2023-11-22T06:50:44;1.59;76.46
71436;SHT31;59251;51.326;12.370;2023-11-22T06:53:11;2.06;75.54
71436;SHT31;59251;51.326;12.370;2023-11-22T06:55:38;2.15;76.05
71436;SHT31;59251;51.326;12.370;2023-11-22T06:58:04;2.07;74.94
71436;SHT31;59251;51.326;12.370;2023-11-22T07:00:33;1.63;77.07
71436;SHT31;59251;51.326;12.370;2023-11-22T07:02:59;1.94;76.53
71436;SHT31;59251;51.326;12.370;2023-11-22T07:05:26;2.40;74.87
71436;SHT31;59251;51.326;12.370;2023-11-22T07:07:55;2.46;75.25
71436;SHT31;59251;51.326;12.370;2023-11-22T07:10:22;2.49;74.77
71436;SHT31;59251;51.326;12.370;2023-11-22T07:12:49;2.32;75.37
71436;SHT31;59251;51.326;12.370;2023-11-22T07:15:16;2.68;74.48
71436;SHT31;59251;51.326;12.370;2023-11-22T07:17:44;2.21;75.12
71436;SHT31;59251;51.326;12.370;2023-11-22T07:20:11;1.82;76.70
71436;SHT31;59251;51.326;12.370;2023-11-22T07:22:41;2.34;75.91
71436;SHT31;59251;51.326;12.370;2023-11-22T07:25:09;2.13;75.75
71436;SHT31;59251;51.326;12.370;2023-11-22T07:27:44;2.40;75.28
71436;SHT31;59251;51.326;12.370;2023-11-22T07:30:12;2.10;75.73
71436;SHT31;59251;51.326;12.370;2023-11-22T07:32:39;2.48;75.03
71436;SHT31;59251;51.326;12.370;2023-11-22T07:35:08;2.31;74.91
71436;SHT31;59251;51.326;12.370;2023-11-22T07:37:35;2.35;75.01
71436;SHT31;59251;51.326;12.370;2023-11-22T07:40:06;2.52;74.54
71436;SHT31;59251;51.326;12.370;2023-11-22T07:42:34;2.56;74.85
71436;SHT31;59251;51.326;12.370;2023-11-22T07:45:01;2.52;74.82
71436;SHT31;59251;51.326;12.370;2023-11-22T07:47:28;2.20;74.21
71436;SHT31;59251;51.326;12.370;2023-11-22T07:49:55;2.55;74.98
71436;SHT31;59251;51.326;12.370;2023-11-22T07:52:23;2.52;75.03
71436;SHT31;59251;51.326;12.370;2023-11-22T07:54:55;2.83;74.27
71436;SHT31;59251;51.326;12.370;2023-11-22T07:57:22;1.76;75.83
71436;SHT31;59251;51.326;12.370;2023-11-22T07:59:49;2.41;75.08
71436;SHT31;59251;51.326;12.370;2023-11-22T08:02:16;2.61;74.41
71436;SHT31;59251;51.326;12.370;2023-11-22T08:04:44;1.79;76.38
71436;SHT31;59251;51.326;12.370;2023-11-22T08:07:12;1.97;76.23
71436;SHT31;59251;51.326;12.370;2023-11-22T08:09:41;2.35;74.79
71436;SHT31;59251;51.326;12.370;2023-11-22T08:12:09;2.32;74.66
71436;SHT31;59251;51.326;12.370;2023-11-22T08:14:36;2.61;74.11
71436;SHT31;59251;51.326;12.370;2023-11-22T08:17:03;2.18;74.83
71436;SHT31;59251;51.326;12.370;2023-11-22T08:19:31;2.49;74.17
71436;SHT31;59251;51.326;12.370;2023-11-22T08:21:58;2.21;75.01
71436;SHT31;59251;51.326;12.370;2023-11-22T08:24:24;2.00;75.63
71436;SHT31;59251;51.326;12.370;2023-11-22T08:26:53;1.59;76.46
71436;SHT31;59251;51.326;12.370;2023-11-22T08:29:20;1.73;76.62
71436;SHT31;59251;51.326;12.370;2023-11-22T08:31:47;1.87;75.11
71436;SHT31;59251;51.326;12.370;2023-11-22T08:34:16;2.27;75.07
71436;SHT31;59251;51.326;12.370;2023-11-22T08:36:42;2.40;74.64
71436;SHT31;59251;51.326;12.370;2023-11-22T08:39:09;2.61;74.00
71436;SHT31;59251;51.326;12.370;2023-11-22T08:41:36;2.96;73.26
71436;SHT31;59251;51.326;12.370;2023-11-22T08:44:05;2.68;74.25
71436;SHT31;59251;51.326;12.370;2023-11-22T08:46:31;2.95;73.50
71436;SHT31;59251;51.326;12.370;2023-11-22T08:48:58;3.00;72.80
71436;SHT31;59251;51.326;12.370;2023-11-22T08:51:25;2.59;73.90
71436;SHT31;59251;51.326;12.370;2023-11-22T08:53:52;2.61;73.42
71436;SHT31;59251;51.326;12.370;2023-11-22T08:56:20;2.85;73.54
71436;SHT31;59251;51.326;12.370;2023-11-22T08:58:47;2.52;73.62
71436;SHT31;59251;51.326;12.370;2023-11-22T09:01:15;2.90;73.48
71436;SHT31;59251;51.326;12.370;2023-11-22T09:03:43;2.72;73.82
71436;SHT31;59251;51.326;12.370;2023-11-22T09:06:10;2.34;75.27
71436;SHT31;59251;51.326;12.370;2023-11-22T09:08:36;2.63;73.94
71436;SHT31;59251;51.326;12.370;2023-11-22T09:11:03;2.75;73.94
71436;SHT31;59251;51.326;12.370;2023-11-22T09:13:31;2.56;73.62
71436;SHT31;59251;51.326;12.370;2023-11-22T09:15:58;2.88;73.25
71436;SHT31;59251;51.326;12.370;2023-11-22T09:18:26;3.03;73.08
71436;SHT31;59251;51.326;12.370;2023-11-22T09:20:53;2.63;73.64
71436;SHT31;59251;51.326;12.370;2023-11-22T09:23:20;3.41;72.48
71436;SHT31;59251;51.326;12.370;2023-11-22T09:25:49;3.44;71.66
71436;SHT31;59251;51.326;12.370;2023-11-22T09:28:16;2.82;72.13
71436;SHT31;59251;51.326;12.370;2023-11-22T09:30:46;2.30;73.59
71436;SHT31;59251;51.326;12.370;2023-11-22T09:33:14;3.61;71.44
71436;SHT31;59251;51.326;12.370;2023-11-22T09:35:44;3.42;70.88
71436;SHT31;59251;51.326;12.370;2023-11-22T09:38:11;3.28;72.15
71436;SHT31;59251;51.326;12.370;2023-11-22T09:40:40;3.52;71.71
71436;SHT31;59251;51.326;12.370;2023-11-22T09:43:08;3.39;71.34
71436;SHT31;59251;51.326;12.370;2023-11-22T09:45:34;3.79;70.46
71436;SHT31;59251;51.326;12.370;2023-11-22T09:48:07;3.78;70.51
71436;SHT31;59251;51.326;12.370;2023-11-22T09:50:40;3.58;70.74
71436;SHT31;59251;51.326;12.370;2023-11-22T09:53:11;3.24;72.28
71436;SHT31;59251;51.326;12.370;2023-11-22T09:55:40;2.92;73.29
71436;SHT31;59251;51.326;12.370;2023-11-22T09:58:11;2.97;73.06
71436;SHT31;59251;51.326;12.370;2023-11-22T10:00:40;3.48;71.81
71436;SHT31;59251;51.326;12.370;2023-11-22T10:03:07;3.47;71.40
71436;SHT31;59251;51.326;12.370;2023-11-22T10:05:35;3.38;72.18
71436;SHT31;59251;51.326;12.370;2023-11-22T10:08:03;3.27;72.31
71436;SHT31;59251;51.326;12.370;2023-11-22T10:10:32;3.68;71.62
71436;SHT31;59251;51.326;12.370;2023-11-22T10:13:01;3.28;72.79
71436;SHT31;59251;51.326;12.370;2023-11-22T10:15:29;3.20;73.64
71436;SHT31;59251;51.326;12.370;2023-11-22T10:17:58;3.11;72.96
71436;SHT31;59251;51.326;12.370;2023-11-22T10:20:35;3.71;72.30
71436;SHT31;59251;51.326;12.370;2023-11-22T10:23:02;3.72;70.98
71436;SHT31;59251;51.326;12.370;2023-11-22T10:25:31;3.87;71.80
71436;SHT31;59251;51.326;12.370;2023-11-22T10:27:58;3.61;71.60
71436;SHT31;59251;51.326;12.370;2023-11-22T10:30:25;3.76;71.44
71436;SHT31;59251;51.326;12.370;2023-11-22T10:32:54;3.90;70.65
71436;SHT31;59251;51.326;12.370;2023-11-22T10:35:21;4.30;70.61
71436;SHT31;59251;51.326;12.370;2023-11-22T10:37:48;4.05;70.41
71436;SHT31;59251;51.326;12.370;2023-11-22T10:40:15;3.72;70.37
71436;SHT31;59251;51.326;12.370;2023-11-22T10:42:43;3.66;71.28
71436;SHT31;59251;51.326;12.370;2023-11-22T10:45:12;3.87;70.80
71436;SHT31;59251;51.326;12.370;2023-11-22T10:47:40;4.20;70.59
71436;SHT31;59251;51.326;12.370;2023-11-22T10:50:09;4.65;69.25
71436;SHT31;59251;51.326;12.370;2023-11-22T10:52:41;4.50;69.32
71436;SHT31;59251;51.326;12.370;2023-11-22T10:55:11;4.78;68.74
71436;SHT31;59251;51.326;12.370;2023-11-22T10:57:42;4.44;69.51
71436;SHT31;59251;51.326;12.370;2023-11-22T11:00:13;5.30;68.37
71436;SHT31;59251;51.326;12.370;2023-11-22T11:02:45;4.78;68.44
71436;SHT31;59251;51.326;12.370;2023-11-22T11:05:20;5.08;68.64
71436;SHT31;59251;51.326;12.370;2023-11-22T11:07:57;5.44;66.96
71436;SHT31;59251;51.326;12.370;2023-11-22T11:10:28;5.13;67.58
71436;SHT31;59251;51.326;12.370;2023-11-22T11:12:55;5.43;67.04
71436;SHT31;59251;51.326;12.370;2023-11-22T11:15:23;5.26;67.22
71436;SHT31;59251;51.326;12.370;2023-11-22T11:17:51;4.11;69.26
71436;SHT31;59251;51.326;12.370;2023-11-22T11:20:19;4.07;69.06
71436;SHT31;59251;51.326;12.370;2023-11-22T11:22:49;4.23;70.41
71436;SHT31;59251;51.326;12.370;2023-11-22T11:25:17;5.05;68.32
71436;SHT31;59251;51.326;12.370;2023-11-22T11:27:52;5.23;67.87
71436;SHT31;59251;51.326;12.370;2023-11-22T11:30:41;5.50;67.48
71436;SHT31;59251;51.326;12.370;2023-11-22T11:33:09;5.41;67.28
71436;SHT31;59251;51.326;12.370;2023-11-22T11:35:38;5.12;68.30
71436;SHT31;59251;51.326;12.370;2023-11-22T11:38:05;5.16;67.89
71436;SHT31;59251;51.326;12.370;2023-11-22T11:40:35;5.09;68.11
71436;SHT31;59251;51.326;12.370;2023-11-22T11:43:02;4.17;69.22
71436;SHT31;59251;51.326;12.370;2023-11-22T11:45:28;4.61;68.91
71436;SHT31;59251;51.326;12.370;2023-11-22T11:47:58;4.71;68.56
71436;SHT31;59251;51.326;12.370;2023-11-22T11:50:24;4.71;68.61
71436;SHT31;59251;51.326;12.370;2023-11-22T11:52:52;4.88;68.88
71436;SHT31;59251;51.326;12.370;2023-11-22T11:55:18;5.22;67.82
71436;SHT31;59251;51.326;12.370;2023-11-22T11:57:45;5.26;67.94
71436;SHT31;59251;51.326;12.370;2023-11-22T12:00:14;4.93;68.28
71436;SHT31;59251;51.326;12.370;2023-11-22T12:02:41;4.37;68.28
71436;SHT31;59251;51.326;12.370;2023-11-22T12:05:09;4.91;68.56
71436;SHT31;59251;51.326;12.370;2023-11-22T12:07:36;5.18;67.65
71436;SHT31;59251;51.326;12.370;2023-11-22T12:10:03;4.27;69.11
71436;SHT31;59251;51.326;12.370;2023-11-22T12:12:31;4.72;69.30
71436;SHT31;59251;51.326;12.370;2023-11-22T12:14:58;4.91;68.42
71436;SHT31;59251;51.326;12.370;2023-11-22T12:17:25;5.12;68.02
71436;SHT31;59251;51.326;12.370;2023-11-22T12:19:52;5.26;67.98
71436;SHT31;59251;51.326;12.370;2023-11-22T12:22:21;5.13;67.69
71436;SHT31;59251;51.326;12.370;2023-11-22T12:24:49;5.10;67.61
71436;SHT31;59251;51.326;12.370;2023-11-22T12:27:16;5.12;68.14
71436;SHT31;59251;51.326;12.370;2023-11-22T12:29:43;5.34;67.33
71436;SHT31;59251;51.326;12.370;2023-11-22T12:32:11;5.57;67.33
71436;SHT31;59251;51.326;12.370;2023-11-22T12:34:39;5.37;66.86
71436;SHT31;59251;51.326;12.370;2023-11-22T12:37:05;5.23;67.82
71436;SHT31;59251;51.326;12.370;2023-11-22T12:39:35;5.31;68.05
71436;SHT31;59251;51.326;12.370;2023-11-22T12:42:03;5.12;68.11
71436;SHT31;59251;51.326;12.370;2023-11-22T12:44:30;5.15;68.14
71436;SHT31;59251;51.326;12.370;2023-11-22T12:46:58;5.19;67.90
71436;SHT31;59251;51.326;12.370;2023-11-22T12:49:27;5.19;67.90
71436;SHT31;59251;51.326;12.370;2023-11-22T12:51:55;5.05;68.42
71436;SHT31;59251;51.326;12.370;2023-11-22T12:54:22;4.93;69.57
71436;SHT31;59251;51.326;12.370;2023-11-22T12:56:51;4.67;69.76
71436;SHT31;59251;51.326;12.370;2023-11-22T12:59:23;4.82;69.14
71436;SHT31;59251;51.326;12.370;2023-11-22T13:01:53;4.99;68.92
71436;SHT31;59251;51.326;12.370;2023-11-22T13:04:20;4.67;69.42
71436;SHT31;59251;51.326;12.370;2023-11-22T13:06:46;4.74;69.33
71436;SHT31;59251;51.326;12.370;2023-11-22T13:09:13;4.97;68.92
71436;SHT31;59251;51.326;12.370;2023-11-22T13:11:42;4.78;69.09
71436;SHT31;59251;51.326;12.370;2023-11-22T13:14:11;4.88;68.70
71436;SHT31;59251;51.326;12.370;2023-11-22T13:16:39;4.93;68.72
71436;SHT31;59251;51.326;12.370;2023-11-22T13:19:06;5.15;68.39
71436;SHT31;59251;51.326;12.370;2023-11-22T13:21:34;4.99;69.25
71436;SHT31;59251;51.326;12.370;2023-11-22T13:24:01;4.79;68.72
71436;SHT31;59251;51.326;12.370;2023-11-22T13:26:28;4.75;68.59
71436;SHT31;59251;51.326;12.370;2023-11-22T13:28:55;4.86;68.81
71436;SHT31;59251;51.326;12.370;2023-11-22T13:31:25;4.85;68.69
71436;SHT31;59251;51.326;12.370;2023-11-22T13:33:51;4.69;68.58
71436;SHT31;59251;51.326;12.370;2023-11-22T13:36:18;4.79;68.49
71436;SHT31;59251;51.326;12.370;2023-11-22T13:38:45;4.95;68.17
71436;SHT31;59251;51.326;12.370;2023-11-22T13:41:11;4.96;67.90
71436;SHT31;59251;51.326;12.370;2023-11-22T13:43:38;4.32;68.90
71436;SHT31;59251;51.326;12.370;2023-11-22T13:46:05;4.20;69.34
71436;SHT31;59251;51.326;12.370;2023-11-22T13:48:33;4.40;69.70
71436;SHT31;59251;51.326;12.370;2023-11-22T13:51:00;4.61;69.70
71436;SHT31;59251;51.326;12.370;2023-11-22T13:53:28;4.67;69.19
71436;SHT31;59251;51.326;12.370;2023-11-22T13:55:59;4.81;68.84
71436;SHT31;59251;51.326;12.370;2023-11-22T13:58:30;4.69;68.96
71436;SHT31;59251;51.326;12.370;2023-11-22T14:00:57;4.65;69.50
71436;SHT31;59251;51.326;12.370;2023-11-22T14:03:24;4.58;69.64
71436;SHT31;59251;51.326;12.370;2023-11-22T14:05:52;4.34;70.37
71436;SHT31;59251;51.326;12.370;2023-11-22T14:08:19;4.32;70.84
71436;SHT31;59251;51.326;12.370;2023-11-22T14:10:46;4.51;70.65
71436;SHT31;59251;51.326;12.370;2023-11-22T14:13:13;4.65;69.96
71436;SHT31;59251;51.326;12.370;2023-11-22T14:15:40;4.76;69.63
71436;SHT31;59251;51.326;12.370;2023-11-22T14:18:07;4.62;70.33
71436;SHT31;59251;51.326;12.370;2023-11-22T14:20:33;4.40;70.87
71436;SHT31;59251;51.326;12.370;2023-11-22T14:23:02;4.36;71.09
71436;SHT31;59251;51.326;12.370;2023-11-22T14:25:29;4.24;72.14
71436;SHT31;59251;51.326;12.370;2023-11-22T14:27:56;4.17;71.58
71436;SHT31;59251;51.326;12.370;2023-11-22T14:30:24;4.14;71.68
71436;SHT31;59251;51.326;12.370;2023-11-22T14:32:53;4.09;71.80
71436;SHT31;59251;51.326;12.370;2023-11-22T14:35:20;4.03;71.82
71436;SHT31;59251;51.326;12.370;2023-11-22T14:37:47;4.17;71.91
71436;SHT31;59251;51.326;12.370;2023-11-22T14:40:15;4.24;71.50
71436;SHT31;59251;51.326;12.370;2023-11-22T14:42:45;4.24;71.88
71436;SHT31;59251;51.326;12.370;2023-11-22T14:45:13;4.54;71.39
71436;SHT31;59251;51.326;12.370;2023-11-22T14:47:40;4.27;71.97
71436;SHT31;59251;51.326;12.370;2023-11-22T14:50:10;4.13;72.09
71436;SHT31;59251;51.326;12.370;2023-11-22T14:52:37;4.29;72.00
71436;SHT31;59251;51.326;12.370;2023-11-22T14:55:04;4.43;71.84
71436;SHT31;59251;51.326;12.370;2023-11-22T14:57:32;4.13;72.21
71436;SHT31;59251;51.326;12.370;2023-11-22T14:59:59;4.13;72.35
71436;SHT31;59251;51.326;12.370;2023-11-22T15:02:26;4.20;71.80
71436;SHT31;59251;51.326;12.370;2023-11-22T15:04:53;4.16;71.96
71436;SHT31;59251;51.326;12.370;2023-11-22T15:07:19;4.16;71.97
71436;SHT31;59251;51.326;12.370;2023-11-22T15:09:47;4.20;71.94
71436;SHT31;59251;51.326;12.370;2023-11-22T15:12:14;4.02;72.45
71436;SHT31;59251;51.326;12.370;2023-11-22T15:14:42;4.14;72.23
71436;SHT31;59251;51.326;12.370;2023-11-22T15:17:08;4.33;72.07
71436;SHT31;59251;51.326;12.370;2023-11-22T15:19:35;4.06;72.59
71436;SHT31;59251;51.326;12.370;2023-11-22T15:22:03;4.17;72.65
71436;SHT31;59251;51.326;12.370;2023-11-22T15:24:31;4.09;72.68
71436;SHT31;59251;51.326;12.370;2023-11-22T15:26:58;4.03;72.43
71436;SHT31;59251;51.326;12.370;2023-11-22T15:29:25;4.18;72.67
71436;SHT31;59251;51.326;12.370;2023-11-22T15:31:53;4.11;73.19